Time;durP1;ratioP1;P1;durP2;ratioP2;P2;SDS_P1;SDS_P2;PMS_P1;PMS_P2;Temp;Humidity;BMP_temperature;BMP_pressure;BME280_temperature;BME280_humidity;BME280_pressure;Samples;Min_cycle;Max_cycle;Signal;HPM_P1;HPM_P2
2022/01/03 00:01:04;;;;;;;9.45;1.98;;;7.70;99.90;;;;;;2125590;67;20250;-65
2022/01/03 00:03:47;;;;;;;10.68;1.92;;;7.80;99.90;;;;;;2125456;67;20344;-65
2022/01/03 00:06:30;;;;;;;3.28;1.73;;;7.80;99.90;;;;;;2135395;67;20252;-65
2022/01/03 00:09:11;;;;;;;7.80;2.67;;;7.90;99.90;;;;;;2130998;67;20322;-64
2022/01/03 00:11:54;;;;;;;6.97;1.83;;;7.90;99.90;;;;;;2112474;67;20878;-64
2022/01/03 00:14:41;;;;;;;7.10;2.28;;;8.00;99.90;;;;;;2119849;67;20398;-65
2022/01/03 00:17:26;;;;;;;12.10;2.92;;;8.00;99.90;;;;;;2145014;66;20178;-65
2022/01/03 00:20:09;;;;;;;13.57;3.25;;;8.10;99.90;;;;;;2124838;67;20172;-65
2022/01/03 00:22:56;;;;;;;9.85;2.47;;;8.10;99.90;;;;;;2111692;67;20383;-65
2022/01/03 00:25:42;;;;;;;12.05;3.25;;;8.10;99.90;;;;;;2136615;66;20240;-64
2022/01/03 00:28:56;;;;;;;8.88;1.98;;;8.10;99.90;;;;;;2144204;66;20764;-65
2022/01/03 00:31:41;;;;;;;10.75;2.25;;;8.20;99.90;;;;;;2151293;66;20189;-64
2022/01/03 00:34:27;;;;;;;10.07;2.72;;;8.20;99.90;;;;;;2158266;66;20168;-65
2022/01/03 00:37:12;;;;;;;5.53;2.40;;;8.30;99.90;;;;;;2158211;66;20249;-65
2022/01/03 00:39:58;;;;;;;8.48;3.00;;;8.30;99.90;;;;;;2142293;66;20594;-66
2022/01/03 00:42:40;;;;;;;16.00;3.15;;;8.30;99.90;;;;;;2141429;66;20901;-65
2022/01/03 00:45:22;;;;;;;9.02;3.42;;;8.30;99.90;;;;;;2136707;67;20404;-65
2022/01/03 00:48:09;;;;;;;7.32;2.60;;;8.40;99.90;;;;;;2144945;66;20274;-64
2022/01/03 00:50:51;;;;;;;10.90;2.78;;;8.40;99.90;;;;;;2125559;67;20273;-64
2022/01/03 00:53:34;;;;;;;9.98;2.13;;;8.40;99.90;;;;;;2129958;67;20694;-64
2022/01/03 00:56:25;;;;;;;9.07;2.50;;;8.80;99.90;;;;;;2136969;66;20175;-64
2022/01/03 00:59:16;;;;;;;14.95;3.13;;;8.50;99.90;;;;;;2126200;67;20266;-64
2022/01/03 01:02:01;;;;;;;17.80;3.22;;;8.40;99.90;;;;;;2122144;67;20631;-64
2022/01/03 01:04:45;;;;;;;12.50;3.17;;;8.40;99.90;;;;;;2128847;67;20196;-64
2022/01/03 01:07:29;;;;;;;10.23;2.55;;;8.40;99.90;;;;;;2124319;67;20198;-65
2022/01/03 01:10:11;;;;;;;14.57;4.30;;;8.30;99.90;;;;;;2131073;67;21046;-65
2022/01/03 01:12:55;;;;;;;11.45;2.75;;;8.30;99.90;;;;;;2130799;67;20227;-65
2022/01/03 01:15:38;;;;;;;10.30;3.17;;;8.30;99.90;;;;;;2131042;67;20205;-65
2022/01/03 01:18:31;;;;;;;14.32;4.55;;;8.30;99.90;;;;;;2116916;67;20375;-65
2022/01/03 01:21:16;;;;;;;9.80;3.33;;;8.30;99.90;;;;;;2105777;67;20686;-65
2022/01/03 01:23:58;;;;;;;19.10;4.38;;;8.70;99.90;;;;;;2124684;67;20618;-66
2022/01/03 01:29:42;;;;;;;13.80;3.13;;;8.40;99.90;;;;;;2125191;67;20274;-65
2022/01/03 01:32:28;;;;;;;18.05;3.58;;;8.40;99.90;;;;;;2130489;67;20200;-65
2022/01/03 01:35:11;;;;;;;13.77;3.85;;;8.40;99.90;;;;;;2134275;67;20709;-65
2022/01/03 01:37:56;;;;;;;16.50;3.13;;;8.40;99.90;;;;;;2127966;67;20200;-65
2022/01/03 01:40:48;;;;;;;18.10;3.13;;;8.40;99.90;;;;;;2121188;67;20231;-65
2022/01/03 01:43:41;;;;;;;17.25;3.80;;;8.50;99.90;;;;;;2125502;67;20378;-65
2022/01/03 01:46:24;;;;;;;12.65;3.75;;;8.60;99.90;;;;;;2136112;67;20581;-65
2022/01/03 01:49:06;;;;;;;11.98;3.10;;;8.50;99.90;;;;;;2132483;67;20778;-65
2022/01/03 01:52:00;;;;;;;12.48;3.22;;;8.60;99.90;;;;;;2127716;67;20339;-65
2022/01/03 01:54:59;;;;;;;13.98;3.53;;;8.60;99.90;;;;;;2137057;67;20167;-64
2022/01/03 01:58:26;;;;;;;12.93;3.33;;;8.60;99.90;;;;;;2134698;67;20197;-64
2022/01/03 02:01:09;;;;;;;15.90;4.10;;;8.60;99.90;;;;;;2131819;67;20219;-66
2022/01/03 02:04:05;;;;;;;11.45;3.00;;;8.60;99.90;;;;;;2129447;67;20410;-64
2022/01/03 02:06:48;;;;;;;16.15;3.08;;;8.60;99.90;;;;;;2132020;67;20167;-66
2022/01/03 02:09:53;;;;;;;17.08;4.07;;;8.60;99.90;;;;;;2128072;67;20236;-65
2022/01/03 02:12:40;;;;;;;16.75;3.63;;;8.00;99.90;;;;;;2143652;66;20200;-65
2022/01/03 02:15:22;;;;;;;18.00;4.63;;;8.70;99.90;;;;;;2134246;66;20267;-67
2022/01/03 02:18:04;;;;;;;15.30;4.03;;;8.70;99.90;;;;;;2151873;66;20565;-65
2022/01/03 02:20:47;;;;;;;14.07;3.42;;;8.70;99.90;;;;;;2142900;66;20203;-64
2022/01/03 02:23:31;;;;;;;;;;;8.70;99.90;;;;;;2145245;66;20679;-65
2022/01/03 02:26:15;;;;;;;11.07;3.45;;;8.80;99.90;;;;;;2147957;66;20112;-65
2022/01/03 02:28:59;;;;;;;16.45;4.13;;;8.80;99.90;;;;;;2135044;67;20175;-64
2022/01/03 02:31:41;;;;;;;12.82;3.42;;;8.80;99.90;;;;;;2126457;67;20413;-66
2022/01/03 02:34:24;;;;;;;16.38;3.40;;;8.80;99.90;;;;;;2132101;67;20262;-64
2022/01/03 02:37:11;;;;;;;21.02;5.35;;;8.80;99.90;;;;;;2129674;66;20211;-64
2022/01/03 02:39:56;;;;;;;18.35;4.28;;;8.80;99.90;;;;;;2139129;66;20233;-63
2022/01/03 02:42:40;;;;;;;16.23;4.03;;;8.80;99.90;;;;;;2146626;66;20760;-64
2022/01/03 02:45:25;;;;;;;20.65;4.05;;;8.90;99.90;;;;;;2137804;66;20324;-66
2022/01/03 02:48:07;;;;;;;12.45;3.65;;;8.80;99.90;;;;;;2131926;67;20264;-65
2022/01/03 02:50:48;;;;;;;19.90;4.18;;;8.80;99.90;;;;;;2142574;66;20451;-65
2022/01/03 02:53:30;;;;;;;18.42;4.50;;;8.70;99.90;;;;;;2128109;67;20349;-64
2022/01/03 02:56:11;;;;;;;13.98;3.33;;;8.70;99.90;;;;;;2126850;67;20284;-65
2022/01/03 02:58:53;;;;;;;21.35;3.85;;;8.70;99.90;;;;;;2113541;67;20418;-64
2022/01/03 03:01:35;;;;;;;16.45;4.32;;;8.80;99.90;;;;;;2117762;67;20353;-65
2022/01/03 03:04:18;;;;;;;19.50;4.35;;;8.70;99.90;;;;;;2129118;67;20239;-64
2022/01/03 03:07:19;;;;;;;21.98;5.72;;;8.80;99.90;;;;;;2126999;67;20471;-65
2022/01/03 03:10:13;;;;;;;16.80;4.15;;;8.80;99.90;;;;;;2111613;67;20293;-64
2022/01/03 03:12:54;;;;;;;19.38;4.18;;;8.70;99.90;;;;;;2111443;67;20365;-64
2022/01/03 03:15:36;;;;;;;18.30;4.03;;;8.70;99.90;;;;;;2118127;67;20701;-65
2022/01/03 03:18:19;;;;;;;16.13;4.38;;;8.60;99.90;;;;;;2131601;67;20175;-65
2022/01/03 03:21:03;;;;;;;;;;;8.50;99.90;;;;;;2130159;67;20351;-65
2022/01/03 03:23:45;;;;;;;22.17;4.68;;;8.50;99.90;;;;;;2125003;67;20225;-65
2022/01/03 03:26:28;;;;;;;16.75;4.97;;;8.40;99.90;;;;;;2117311;67;20329;-63
2022/01/03 03:29:14;;;;;;;;;;;8.40;99.90;;;;;;2133413;67;20175;-65
2022/01/03 03:31:58;;;;;;;16.88;4.70;;;8.30;99.90;;;;;;2149286;66;20175;-64
2022/01/03 03:34:40;;;;;;;17.90;5.22;;;8.30;99.90;;;;;;2151944;66;20702;-63
2022/01/03 03:37:23;;;;;;;17.40;4.18;;;8.30;99.90;;;;;;2154925;66;20198;-65
2022/01/03 03:40:08;;;;;;;20.55;4.72;;;8.30;99.90;;;;;;2153624;66;20308;-64
2022/01/03 03:42:49;;;;;;;14.30;3.70;;;8.30;99.90;;;;;;2158059;66;20749;-64
2022/01/03 03:45:34;;;;;;;17.02;4.78;;;8.20;99.90;;;;;;2167698;65;20212;-65
2022/01/03 03:48:19;;;;;;;21.67;4.60;;;8.20;99.90;;;;;;2175890;65;20300;-64
2022/01/03 03:51:01;;;;;;;15.48;4.47;;;8.20;99.90;;;;;;2162177;66;20302;-65
2022/01/03 03:53:43;;;;;;;17.95;3.72;;;8.10;99.90;;;;;;2169327;66;20325;-65
2022/01/03 03:56:25;;;;;;;26.17;4.85;;;8.10;99.90;;;;;;2176629;65;20605;-66
2022/01/03 03:59:10;;;;;;;17.92;4.05;;;8.10;99.90;;;;;;2161779;66;20189;-65
2022/01/03 04:01:53;;;;;;;12.68;3.53;;;8.20;99.90;;;;;;2169427;66;20764;-64
2022/01/03 04:04:34;;;;;;;23.27;4.72;;;8.20;99.90;;;;;;2150338;66;20312;-64
2022/01/03 04:07:16;;;;;;;19.90;4.40;;;8.10;99.90;;;;;;2161583;66;20667;-64
2022/01/03 04:10:00;;;;;;;21.90;4.68;;;8.10;99.90;;;;;;2161940;66;20205;-64
2022/01/03 04:12:44;;;;;;;19.90;5.07;;;8.10;99.90;;;;;;2147398;66;20433;-65
2022/01/03 04:15:27;;;;;;;24.08;5.25;;;8.10;99.90;;;;;;2132857;67;20167;-65
2022/01/03 04:18:12;;;;;;;15.57;4.05;;;8.00;99.90;;;;;;2132561;67;20221;-65
2022/01/03 04:20:57;;;;;;;20.80;5.50;;;8.10;99.90;;;;;;2118529;67;20346;-64
2022/01/03 04:23:38;;;;;;;16.98;4.07;;;8.10;99.90;;;;;;2111548;67;20261;-64
2022/01/03 04:26:20;;;;;;;20.20;4.53;;;8.20;99.90;;;;;;2118612;67;20981;-64
2022/01/03 04:29:03;;;;;;;19.48;4.63;;;8.20;99.90;;;;;;2118717;67;20362;-65
2022/01/03 04:31:45;;;;;;;25.92;4.65;;;8.20;99.90;;;;;;2118347;67;20342;-64
2022/01/03 04:34:28;;;;;;;16.98;5.25;;;8.30;99.90;;;;;;2118629;67;20202;-65
2022/01/03 04:37:15;;;;;;;19.83;4.55;;;8.20;99.90;;;;;;2110846;67;20335;-64
2022/01/03 04:39:58;;;;;;;16.67;4.03;;;8.50;99.90;;;;;;2112237;67;20750;-65
2022/01/03 04:42:43;;;;;;;22.38;5.05;;;8.20;99.90;;;;;;2118306;67;20198;-64
2022/01/03 04:45:25;;;;;;;22.60;4.35;;;8.30;99.90;;;;;;2140006;67;20386;-65
2022/01/03 04:48:12;;;;;;;22.73;4.20;;;8.20;99.90;;;;;;2132676;67;20272;-65
2022/01/03 04:50:56;;;;;;;21.23;5.32;;;8.20;99.90;;;;;;2131075;67;20318;-65
2022/01/03 04:53:40;;;;;;;26.05;5.82;;;8.20;99.90;;;;;;2139149;66;20980;-65
2022/01/03 04:56:21;;;;;;;15.23;4.20;;;8.20;99.90;;;;;;2132193;67;20685;-65
2022/01/03 04:59:04;;;;;;;18.98;5.60;;;8.30;99.90;;;;;;2143083;66;20170;-65
2022/01/03 05:01:45;;;;;;;18.52;4.70;;;8.30;99.90;;;;;;2154288;66;20339;-65
2022/01/03 05:04:27;;;;;;;29.75;5.55;;;8.40;99.90;;;;;;2143825;66;20190;-66
2022/01/03 05:07:09;;;;;;;21.25;4.63;;;8.40;99.90;;;;;;2154875;66;20533;-64
2022/01/03 05:09:51;;;;;;;17.30;5.03;;;8.30;99.90;;;;;;2161146;66;20218;-65
2022/01/03 05:12:33;;;;;;;22.35;5.80;;;8.30;99.90;;;;;;2146024;66;20228;-65
2022/01/03 05:15:15;;;;;;;21.10;5.25;;;8.30;99.90;;;;;;2159476;66;20214;-65
2022/01/03 05:17:56;;;;;;;19.38;4.90;;;8.40;99.90;;;;;;2146860;66;20383;-65
2022/01/03 05:20:39;;;;;;;21.05;5.45;;;8.30;99.90;;;;;;2152410;66;20237;-66
2022/01/03 05:23:26;;;;;;;18.67;4.10;;;8.30;99.90;;;;;;2158369;66;20695;-66
2022/01/03 05:26:11;;;;;;;20.70;5.68;;;8.30;99.90;;;;;;2161695;66;20353;-65
2022/01/03 05:28:53;;;;;;;21.73;5.57;;;8.30;99.90;;;;;;2166972;66;20159;-65
2022/01/03 05:31:35;;;;;;;18.10;5.47;;;8.30;99.90;;;;;;2176468;65;20702;-66
2022/01/03 05:34:17;;;;;;;24.02;4.60;;;8.30;99.90;;;;;;2161657;66;20192;-64
2022/01/03 05:36:59;;;;;;;24.05;5.47;;;8.30;99.90;;;;;;2147084;66;20318;-65
2022/01/03 05:39:43;;;;;;;26.90;6.25;;;8.40;99.90;;;;;;2142413;66;20746;-66
2022/01/03 05:42:25;;;;;;;21.52;4.93;;;8.30;99.90;;;;;;2146787;66;20174;-64
2022/01/03 05:45:08;;;;;;;23.40;4.40;;;8.30;99.90;;;;;;2146975;66;20209;-65
2022/01/03 05:47:51;;;;;;;19.25;5.68;;;8.20;99.90;;;;;;2134829;67;20183;-65
2022/01/03 05:50:33;;;;;;;22.60;4.82;;;8.30;99.90;;;;;;2154153;66;20233;-65
2022/01/03 05:53:15;;;;;;;16.70;6.45;;;8.20;99.90;;;;;;2146966;66;20569;-64
2022/01/03 05:56:01;;;;;;;23.80;5.30;;;8.20;99.90;;;;;;2146320;66;20182;-65
2022/01/03 05:58:46;;;;;;;22.70;4.82;;;8.20;99.90;;;;;;2138679;66;20314;-64
2022/01/03 06:01:29;;;;;;;20.13;5.03;;;8.30;99.90;;;;;;2147249;66;20272;-65
2022/01/03 06:04:22;;;;;;;16.98;4.95;;;8.30;99.90;;;;;;2153910;66;20314;-64
2022/01/03 06:07:08;;;;;;;22.80;5.65;;;8.30;99.90;;;;;;2161365;66;20268;-66
2022/01/03 06:09:52;;;;;;;19.45;5.55;;;8.30;99.90;;;;;;2132680;66;20383;-65
2022/01/03 06:12:36;;;;;;;21.52;5.53;;;8.30;99.90;;;;;;2130645;67;20251;-65
2022/01/03 06:15:21;;;;;;;26.98;6.10;;;8.30;99.90;;;;;;2137314;67;20427;-65
2022/01/03 06:18:04;;;;;;;23.45;5.85;;;8.30;99.90;;;;;;2132324;67;20284;-65
2022/01/03 06:20:47;;;;;;;24.50;5.57;;;8.30;99.90;;;;;;2127163;66;20266;-64
2022/01/03 06:23:28;;;;;;;20.17;4.88;;;8.30;99.90;;;;;;2138533;67;20718;-65
2022/01/03 06:26:11;;;;;;;22.48;4.88;;;8.30;99.90;;;;;;2147655;66;20181;-65
2022/01/03 06:28:55;;;;;;;22.45;5.68;;;8.30;99.90;;;;;;2145807;66;20346;-65
2022/01/03 06:31:41;;;;;;;25.75;6.57;;;8.30;99.90;;;;;;2140249;66;20183;-65
2022/01/03 06:34:23;;;;;;;20.67;6.43;;;8.40;99.90;;;;;;2144969;66;20282;-64
2022/01/03 06:37:04;;;;;;;21.27;4.63;;;8.40;99.90;;;;;;2153940;66;20688;-66
2022/01/03 06:39:46;;;;;;;27.83;5.82;;;8.50;99.90;;;;;;2163479;66;20164;-65
2022/01/03 06:42:28;;;;;;;15.40;4.20;;;8.50;99.90;;;;;;2168708;66;20353;-66
2022/01/03 06:45:10;;;;;;;22.02;5.35;;;8.50;99.90;;;;;;2160313;66;20760;-64
2022/01/03 06:47:54;;;;;;;22.42;5.72;;;8.50;99.90;;;;;;2159466;66;20161;-65
2022/01/03 06:50:38;;;;;;;29.50;7.07;;;8.50;99.90;;;;;;2158763;66;20434;-64
2022/01/03 06:53:20;;;;;;;23.17;6.90;;;8.40;99.90;;;;;;2170112;65;20172;-65
2022/01/03 06:56:03;;;;;;;18.15;5.50;;;8.40;99.90;;;;;;2177792;65;20179;-65
2022/01/03 06:58:47;;;;;;;19.58;6.05;;;8.30;99.90;;;;;;2169551;65;20358;-65
2022/01/03 07:01:31;;;;;;;28.13;5.45;;;8.30;99.90;;;;;;2148274;66;20209;-65
2022/01/03 07:04:13;;;;;;;17.88;4.13;;;8.30;99.90;;;;;;2129762;67;20307;-65
2022/01/03 07:06:56;;;;;;;35.03;5.50;;;7.80;99.90;;;;;;2136605;66;20403;-64
2022/01/03 07:09:40;;;;;;;;;;;8.20;99.90;;;;;;2165097;65;20236;-64
2022/01/03 07:12:23;;;;;;;22.33;5.72;;;8.30;99.90;;;;;;2164756;65;20261;-66
2022/01/03 07:21:10;;;;;;;26.10;7.38;;;8.40;99.90;;;;;;2129407;67;20206;-65
2022/01/03 07:23:51;;;;;;;23.70;5.53;;;8.50;99.90;;;;;;2121960;67;20215;-65
2022/01/03 07:26:33;;;;;;;20.63;4.57;;;8.50;99.90;;;;;;2129188;67;20167;-66
2022/01/03 07:29:15;;;;;;;21.60;5.57;;;8.40;99.90;;;;;;2133459;66;20258;-67
2022/01/03 07:31:57;;;;;;;25.67;6.47;;;8.50;99.90;;;;;;2122539;67;20336;-66
2022/01/03 07:34:40;;;;;;;23.95;5.03;;;8.50;99.90;;;;;;2130635;66;20373;-68
2022/01/03 07:37:24;;;;;;;21.85;5.57;;;8.50;99.90;;;;;;2132626;66;20175;-67
2022/01/03 07:40:09;;;;;;;18.58;5.20;;;8.60;99.90;;;;;;2141524;66;20202;-82
2022/01/03 07:42:52;;;;;;;22.52;5.45;;;8.60;99.90;;;;;;2136471;66;20340;-72
2022/01/03 07:45:37;;;;;;;18.83;5.68;;;8.70;99.90;;;;;;2130268;66;20415;-72
2022/01/03 07:48:21;;;;;;;20.83;6.03;;;8.40;99.90;;;;;;2129143;67;20348;-74
2022/01/03 07:51:03;;;;;;;21.80;6.57;;;8.60;99.90;;;;;;2127986;67;20385;-73
2022/01/03 07:53:45;;;;;;;25.02;5.68;;;8.60;99.90;;;;;;2134960;67;20231;-74
2022/01/03 07:56:29;;;;;;;30.00;6.47;;;8.90;99.90;;;;;;2140699;66;20456;-73
2022/01/03 07:59:15;;;;;;;26.40;6.30;;;8.60;99.90;;;;;;2143731;66;20722;-73
2022/01/03 08:01:59;;;;;;;30.58;7.10;;;8.60;99.90;;;;;;2137361;66;20250;-76
2022/01/03 08:04:42;;;;;;;22.33;5.53;;;8.60;99.90;;;;;;2144010;66;20198;-77
2022/01/03 08:07:27;;;;;;;22.80;6.10;;;8.70;99.90;;;;;;2149379;66;20628;-76
2022/01/03 08:10:10;;;;;;;21.80;5.18;;;8.70;99.90;;;;;;2135380;66;20206;-76
2022/01/03 08:12:52;;;;;;;29.02;5.45;;;8.70;99.90;;;;;;2144235;66;20198;-76
2022/01/03 08:15:35;;;;;;;28.10;5.55;;;8.80;99.90;;;;;;2156214;66;20367;-76
2022/01/03 08:18:23;;;;;;;;;;;8.90;99.90;;;;;;2152134;66;20330;-77
2022/01/03 08:21:08;;;;;;;26.83;5.90;;;8.90;99.90;;;;;;2148845;66;20593;-73
2022/01/03 08:23:51;;;;;;;26.58;5.85;;;9.00;99.90;;;;;;2144759;66;20206;-74
2022/01/03 08:26:38;;;;;;;21.17;6.35;;;9.00;99.90;;;;;;2139958;66;20369;-74
2022/01/03 08:29:21;;;;;;;22.35;6.03;;;9.00;99.90;;;;;;2153304;66;20293;-77
2022/01/03 08:32:05;;;;;;;;;;;9.10;99.90;;;;;;2155071;66;20359;-73
2022/01/03 08:34:48;;;;;;;21.52;4.47;;;9.10;99.90;;;;;;2134871;67;20055;-74
2022/01/03 08:37:38;;;;;;;22.58;5.20;;;9.10;99.90;;;;;;2128902;67;20327;-73
2022/01/03 08:40:20;;;;;;;28.60;6.20;;;9.10;99.90;;;;;;2124713;67;20180;-74
2022/01/03 08:43:02;;;;;;;20.40;5.40;;;9.10;99.90;;;;;;2127776;67;20290;-73
2022/01/03 08:45:44;;;;;;;22.30;6.18;;;9.10;99.90;;;;;;2124315;67;20253;-74
2022/01/03 08:48:26;;;;;;;26.13;5.22;;;9.10;99.90;;;;;;2128266;67;20718;-74
2022/01/03 08:51:08;;;;;;;17.55;5.28;;;9.20;99.90;;;;;;2135059;67;20739;-74
2022/01/03 08:53:50;;;;;;;20.73;5.35;;;9.20;99.90;;;;;;2124640;67;20305;-72
2022/01/03 08:56:32;;;;;;;18.40;5.03;;;9.20;99.90;;;;;;2107475;67;20251;-73
2022/01/03 08:59:15;;;;;;;25.02;5.25;;;9.30;99.90;;;;;;2123492;67;20184;-75
2022/01/03 09:01:58;;;;;;;21.80;5.00;;;9.20;99.90;;;;;;2126387;67;20176;-75
2022/01/03 09:04:42;;;;;;;;;;;9.30;99.90;;;;;;2134337;67;20368;-73
2022/01/03 09:07:25;;;;;;;18.38;4.63;;;9.30;99.90;;;;;;2132783;67;20048;-73
2022/01/03 09:10:09;;;;;;;;;;;9.30;99.90;;;;;;2149770;66;20254;-76
2022/01/03 09:12:52;;;;;;;18.38;5.03;;;9.30;99.90;;;;;;2147374;66;20512;-75
2022/01/03 09:15:33;;;;;;;23.25;6.40;;;9.30;99.90;;;;;;2162063;66;20197;-75
2022/01/03 09:18:17;;;;;;;31.40;5.53;;;9.40;99.90;;;;;;2153532;66;20234;-76
2022/01/03 09:20:59;;;;;;;28.10;6.15;;;9.40;99.90;;;;;;2139594;66;20199;-76
2022/01/03 09:23:47;;;;;;;22.30;4.05;;;9.40;99.90;;;;;;2140949;66;20834;-74
2022/01/03 09:29:30;;;;;;;26.40;5.63;;;10.20;99.90;;;;;;2139629;66;20330;-73
2022/01/03 09:32:12;;;;;;;13.98;3.85;;;9.50;99.90;;;;;;2144467;66;20478;-73
2022/01/03 09:34:54;;;;;;;18.90;4.55;;;9.50;99.90;;;;;;2132880;67;20223;-75
2022/01/03 09:37:37;;;;;;;20.00;5.13;;;9.50;99.90;;;;;;2127590;67;20366;-77
2022/01/03 09:40:21;;;;;;;21.45;5.95;;;9.50;99.90;;;;;;2133225;67;20400;-75
2022/01/03 09:43:04;;;;;;;17.38;5.25;;;9.60;99.90;;;;;;2125678;67;20318;-72
2022/01/03 09:45:50;;;;;;;22.38;4.88;;;9.50;99.90;;;;;;2131948;67;20703;-82
2022/01/03 09:48:57;;;;;;;19.95;4.30;;;9.50;99.90;;;;;;2131801;67;20314;-82
2022/01/03 09:51:43;;;;;;;28.63;5.10;;;9.50;99.90;;;;;;2116918;67;20169;-77
2022/01/03 09:54:26;;;;;;;19.35;5.15;;;9.60;99.90;;;;;;2130191;67;20757;-74
2022/01/03 09:57:09;;;;;;;24.65;5.82;;;9.50;99.90;;;;;;2132213;67;20288;-73
2022/01/03 09:59:57;;;;;;;17.20;4.05;;;9.50;99.90;;;;;;2144182;66;20254;-73
2022/01/03 10:02:41;;;;;;;22.30;4.97;;;9.50;99.90;;;;;;2118956;67;20193;-74
2022/01/03 10:05:22;;;;;;;18.80;5.00;;;9.50;99.90;;;;;;2113762;67;20662;-77
2022/01/03 10:07:57;;;;;;;23.30;6.53;;;9.50;99.90;;;;;;2115473;67;20656;-74
2022/01/03 10:10:29;;;;;;;24.27;4.88;;;9.50;99.90;;;;;;2112178;67;20227;-72
2022/01/03 10:13:01;;;;;;;22.08;5.70;;;9.60;99.90;;;;;;2130863;66;20262;-72
2022/01/03 10:15:39;;;;;;;19.92;4.85;;;9.60;99.90;;;;;;2146951;66;20340;-71
2022/01/03 10:18:23;;;;;;;22.98;5.05;;;9.70;99.90;;;;;;2156096;66;20691;-70
2022/01/03 10:21:05;;;;;;;27.13;5.28;;;9.80;99.90;;;;;;2154218;66;20898;-73
2022/01/03 10:23:58;;;;;;;23.23;5.25;;;9.90;99.90;;;;;;2173304;65;20303;-71
2022/01/03 10:26:42;;;;;;;28.48;5.13;;;9.90;99.90;;;;;;2173865;65;20192;-71
2022/01/03 10:29:26;;;;;;;21.02;5.50;;;10.00;99.90;;;;;;2175152;65;20211;-72
2022/01/03 10:32:11;;;;;;;21.50;4.95;;;9.90;99.90;;;;;;2166894;65;20258;-71
2022/01/03 10:34:53;;;;;;;19.20;4.90;;;10.00;99.90;;;;;;2160643;66;20754;-72
2022/01/03 10:37:37;;;;;;;25.48;5.50;;;10.10;99.90;;;;;;2159878;66;20285;-71
2022/01/03 10:40:28;;;;;;;21.42;5.43;;;10.10;99.90;;;;;;2163386;65;20318;-71
2022/01/03 10:43:25;;;;;;;18.17;4.97;;;10.10;99.90;;;;;;2167215;65;20289;-72
2022/01/03 10:46:27;;;;;;;16.70;3.90;;;10.20;99.90;;;;;;2144850;66;20190;-70
2022/01/03 10:49:21;;;;;;;15.65;4.30;;;9.20;99.90;;;;;;2130499;67;20411;-70
2022/01/03 10:52:22;;;;;;;20.40;5.40;;;10.20;99.90;;;;;;2137762;67;20679;-70
2022/01/03 10:55:20;;;;;;;30.33;5.55;;;10.30;99.90;;;;;;2124391;67;20377;-71
2022/01/03 10:58:08;;;;;;;13.95;4.10;;;10.30;99.90;;;;;;2138946;66;20818;-74
2022/01/03 11:00:54;;;;;;;24.73;4.55;;;10.30;99.90;;;;;;2133409;66;20837;-73
2022/01/03 11:03:42;;;;;;;17.85;5.78;;;10.20;99.90;;;;;;2138788;66;20974;-73
2022/01/03 11:12:22;;;;;;;18.95;5.22;;;10.30;99.90;;;;;;2127487;67;20356;-73
2022/01/03 11:15:20;;;;;;;20.42;4.63;;;10.30;99.90;;;;;;2141380;66;20318;-72
2022/01/03 11:18:40;;;;;;;20.80;4.90;;;10.30;99.90;;;;;;2150998;66;20690;-72
2022/01/03 11:21:24;;;;;;;18.23;5.55;;;10.30;99.90;;;;;;2146651;66;20302;-74
2022/01/03 11:24:10;;;;;;;23.95;4.93;;;10.30;99.90;;;;;;2152781;66;20361;-76
2022/01/03 11:26:51;;;;;;;;;;;10.30;99.90;;;;;;2138300;66;20223;-74
2022/01/03 11:29:33;;;;;;;23.13;5.43;;;10.30;99.90;;;;;;2132358;66;20064;-74
2022/01/03 11:32:16;;;;;;;13.82;4.07;;;10.30;99.90;;;;;;2125625;67;20314;-73
2022/01/03 11:34:59;;;;;;;14.13;4.00;;;10.30;99.90;;;;;;2127275;67;20254;-74
2022/01/03 11:37:47;;;;;;;20.33;5.57;;;10.30;99.90;;;;;;2138011;66;20457;-74
2022/01/03 11:40:32;;;;;;;20.70;5.90;;;10.30;99.90;;;;;;2148654;66;20705;-72
2022/01/03 11:43:19;;;;;;;20.98;5.45;;;10.40;99.90;;;;;;2143966;66;20354;-73
2022/01/03 11:46:04;;;;;;;15.73;5.00;;;10.50;99.90;;;;;;2125922;67;20787;-72
2022/01/03 11:48:46;;;;;;;19.15;4.70;;;10.60;99.90;;;;;;2128309;67;20345;-71
2022/01/03 11:51:32;;;;;;;17.10;4.70;;;10.70;99.90;;;;;;2122671;67;20711;-70
2022/01/03 11:54:17;;;;;;;19.92;4.43;;;10.90;99.90;;;;;;2137713;66;20234;-70
2022/01/03 11:57:21;;;;;;;14.32;4.43;;;10.90;99.90;;;;;;2137922;66;20418;-72
2022/01/03 12:06:05;;;;;;;18.92;4.93;;;10.90;99.90;;;;;;2130216;66;20959;-72
2022/01/03 12:08:54;;;;;;;20.55;3.95;;;11.00;99.90;;;;;;2141607;66;20181;-71
2022/01/03 12:11:33;;;;;;;14.82;4.40;;;10.90;99.90;;;;;;2154403;65;20771;-76
2022/01/03 12:14:14;;;;;;;22.10;4.40;;;10.80;99.90;;;;;;2183288;65;20226;-72
2022/01/03 12:16:57;;;;;;;16.02;4.38;;;10.80;99.90;;;;;;2201772;64;20260;-71
2022/01/03 12:19:39;;;;;;;17.55;3.58;;;10.80;99.90;;;;;;2217009;64;20242;-74
2022/01/03 12:22:54;;;;;;;16.05;4.53;;;10.80;99.90;;;;;;2202221;64;20189;-71
2022/01/03 12:25:32;;;;;;;20.13;4.38;;;10.80;99.90;;;;;;2207231;64;20258;-73
2022/01/03 12:28:24;;;;;;;13.27;3.58;;;10.80;99.90;;;;;;2195822;65;20367;-71
2022/01/03 12:31:19;;;;;;;16.92;3.80;;;10.80;99.90;;;;;;2177354;65;20219;-72
2022/01/03 12:34:19;;;;;;;17.50;5.07;;;10.70;99.90;;;;;;2178773;65;20653;-72
2022/01/03 12:37:14;;;;;;;14.73;3.92;;;10.60;99.90;;;;;;2179060;65;20171;-72
2022/01/03 12:40:02;;;;;;;18.95;4.38;;;10.70;99.90;;;;;;2182271;64;20789;-72
2022/01/03 12:42:52;;;;;;;9.57;3.30;;;10.70;99.90;;;;;;2203466;64;20198;-69
2022/01/03 12:45:44;;;;;;;;;;;10.80;99.90;;;;;;2193772;65;20340;-70
2022/01/03 12:48:18;;;;;;;15.40;3.83;;;10.90;99.90;;;;;;2202719;64;20068;-71
2022/01/03 12:50:55;;;;;;;18.10;5.00;;;11.00;99.90;;;;;;2206899;64;20192;-70
2022/01/03 12:53:30;;;;;;;16.10;4.13;;;11.00;99.90;;;;;;2204419;64;20193;-72
2022/01/03 12:56:15;;;;;;;16.73;4.13;;;11.00;99.90;;;;;;2202697;64;20231;-70
2022/01/03 12:58:58;;;;;;;21.20;5.28;;;11.10;99.90;;;;;;2189334;65;20814;-71
2022/01/03 13:01:42;;;;;;;25.35;5.35;;;11.10;99.90;;;;;;2174938;65;20569;-74
2022/01/03 13:04:28;;;;;;;14.45;4.38;;;11.10;99.90;;;;;;2173875;65;20406;-73
2022/01/03 13:07:13;;;;;;;19.00;4.53;;;11.00;99.90;;;;;;2180434;65;20713;-72
2022/01/03 13:09:58;;;;;;;23.48;4.40;;;10.90;99.90;;;;;;2182700;65;20186;-70
2022/01/03 13:12:44;;;;;;;19.07;4.93;;;11.10;99.90;;;;;;2180816;65;20335;-73
2022/01/03 13:15:29;;;;;;;18.17;5.03;;;10.90;99.90;;;;;;2305619;53;314937;-75
2022/01/03 13:18:14;;;;;;;12.65;4.03;;;10.80;99.90;;;;;;2216920;64;20328;-78
2022/01/03 13:21:06;;;;;;;15.90;4.55;;;10.60;99.90;;;;;;2204579;64;20337;-78
2022/01/03 13:24:00;;;;;;;19.20;4.65;;;10.70;99.90;;;;;;2196856;65;20189;-78
2022/01/03 13:27:02;;;;;;;16.42;4.97;;;10.70;99.90;;;;;;2181946;65;20308;-76
2022/01/03 13:29:57;;;;;;;18.13;5.53;;;10.60;99.90;;;;;;2172536;65;20349;-78
2022/01/03 13:32:40;;;;;;;19.33;4.55;;;10.60;99.90;;;;;;2166566;65;20421;-77
2022/01/03 13:35:22;;;;;;;23.35;4.63;;;10.50;99.90;;;;;;2173269;65;20279;-79
2022/01/03 13:38:16;;;;;;;18.48;4.90;;;10.50;99.90;;;;;;2165379;65;20657;-76
2022/01/03 13:41:13;;;;;;;17.40;4.20;;;10.50;99.90;;;;;;2151953;66;20314;-78
2022/01/03 13:43:57;;;;;;;17.45;5.03;;;10.50;99.90;;;;;;2155197;66;20498;-77
2022/01/03 13:49:53;;;;;;;21.25;4.10;;;10.50;99.90;;;;;;2137472;66;20277;-78
2022/01/03 13:52:37;;;;;;;16.63;5.22;;;10.50;99.90;;;;;;2138588;66;20682;-77
2022/01/03 13:55:20;;;;;;;18.35;5.53;;;10.40;99.90;;;;;;2131350;66;20761;-78
2022/01/03 13:58:18;;;;;;;22.95;4.95;;;10.50;99.90;;;;;;2124221;67;20463;-77
2022/01/03 14:01:05;;;;;;;16.90;4.30;;;10.40;99.90;;;;;;2121932;67;20184;-76
2022/01/03 14:03:55;;;;;;;20.10;5.13;;;10.30;99.90;;;;;;2123857;67;20276;-81
2022/01/03 14:06:39;;;;;;;15.63;4.10;;;10.30;99.90;;;;;;2121745;67;20373;-77
2022/01/03 14:09:23;;;;;;;18.65;4.38;;;10.30;99.90;;;;;;2126628;67;20345;-76
2022/01/03 14:12:16;;;;;;;20.92;5.20;;;10.20;99.90;;;;;;2139485;66;20222;-80
2022/01/03 14:15:02;;;;;;;17.13;4.97;;;10.20;99.90;;;;;;2140796;66;20254;-77
2022/01/03 14:17:51;;;;;;;19.75;5.50;;;10.20;99.90;;;;;;2144119;66;20219;-78
2022/01/03 14:20:36;;;;;;;21.63;5.78;;;10.20;99.90;;;;;;2147939;66;20689;-77
2022/01/03 14:23:19;;;;;;;18.88;4.80;;;10.10;99.90;;;;;;2138445;66;20375;-79
2022/01/03 14:26:35;;;;;;;13.85;3.60;;;10.00;99.90;;;;;;2141509;66;20194;-77
2022/01/03 14:29:22;;;;;;;27.92;5.50;;;10.00;99.90;;;;;;2146641;66;20222;-80
2022/01/03 14:32:14;;;;;;;14.93;4.20;;;9.90;99.90;;;;;;2140563;66;20297;-79
2022/01/03 14:34:57;;;;;;;16.50;4.80;;;9.90;99.90;;;;;;2136458;66;20878;-80
2022/01/03 14:37:39;;;;;;;17.20;4.82;;;9.90;99.90;;;;;;2135279;66;20606;-76
2022/01/03 14:40:36;;;;;;;26.45;5.30;;;9.90;99.90;;;;;;2142134;66;20255;-77
2022/01/03 14:43:29;;;;;;;17.17;4.72;;;9.90;99.90;;;;;;2124355;67;20366;-82
2022/01/03 14:46:13;;;;;;;25.70;5.90;;;9.90;99.90;;;;;;2110564;67;20194;-80
2022/01/03 14:48:55;;;;;;;22.48;5.82;;;9.80;99.90;;;;;;2107404;67;20270;-83